createdAt,value
2022-09-26T00:01:19.243Z,86026.56
2022-09-26T00:03:48.955Z,86034.63
2022-09-26T00:06:18.178Z,86013.38
2022-09-26T00:08:46.941Z,86024.34
2022-09-26T00:11:34.884Z,86017.47
2022-09-26T00:14:07.466Z,86012.00
2022-09-26T00:16:34.702Z,86020.31
2022-09-26T00:19:02.148Z,86029.91
2022-09-26T00:21:30.597Z,86036.72
2022-09-26T00:23:59.324Z,85998.28
2022-09-26T00:26:27.945Z,85996.88
2022-09-26T00:28:55.968Z,85980.31
2022-09-26T00:31:29.261Z,86007.84
2022-09-26T00:33:57.356Z,86024.31
2022-09-26T00:36:36.977Z,85999.06
2022-09-26T00:39:09.081Z,86029.88
2022-09-26T00:41:37.196Z,86025.72
2022-09-26T00:44:24.333Z,85992.06
2022-09-26T00:46:51.722Z,86013.34
2022-09-26T00:49:33.670Z,86014.72
2022-09-26T00:52:08.703Z,86013.38
2022-09-26T00:54:38.864Z,86006.59
2022-09-26T00:57:12.699Z,86013.44
2022-09-26T00:59:44.099Z,86002.44
2022-09-26T01:02:12.144Z,86018.97
2022-09-26T01:04:42.453Z,85985.94
2022-09-26T01:07:17.213Z,85988.66
2022-09-26T01:09:44.898Z,86016.16
2022-09-26T01:12:12.768Z,86022.38
2022-09-26T01:14:41.506Z,86008.63
2022-09-26T01:17:10.000Z,85970.78
2022-09-26T01:20:12.136Z,86018.22
2022-09-26T01:23:07.038Z,86017.53
2022-09-26T01:25:55.812Z,86007.28
2022-09-26T01:28:44.715Z,86006.59
2022-09-26T01:31:34.869Z,86008.56
2022-09-26T01:34:10.869Z,86010.75
2022-09-26T01:36:46.857Z,86003.94
2022-09-26T01:39:34.863Z,85975.72
2022-09-26T01:42:35.503Z,86001.81
2022-09-26T01:45:22.487Z,86008.06
2022-09-26T01:47:57.968Z,85983.22
2022-09-26T01:50:35.020Z,86005.97
2022-09-26T01:53:06.576Z,85966.72
2022-09-26T01:55:57.878Z,85961.22
2022-09-26T01:58:36.426Z,85984.53
2022-09-26T02:01:09.803Z,85991.66
2022-09-26T02:03:40.795Z,85969.66
2022-09-26T02:06:16.939Z,85991.66
2022-09-26T02:08:50.292Z,85999.22
2022-09-26T02:11:20.685Z,85961.28
2022-09-26T02:14:28.009Z,85997.16
2022-09-26T02:16:59.412Z,85998.53
2022-09-26T02:19:37.160Z,85995.78
2022-09-26T02:22:04.303Z,85998.56
2022-09-26T02:24:31.488Z,85972.47
2022-09-26T02:26:58.650Z,85984.84
2022-09-26T02:29:26.079Z,86001.25
2022-09-26T02:32:06.024Z,85987.47
2022-09-26T02:34:33.807Z,85959.25
2022-09-26T02:37:01.768Z,85981.19
2022-09-26T02:39:33.529Z,85982.66
2022-09-26T02:42:13.279Z,85970.88
2022-09-26T02:44:40.769Z,85981.97
2022-09-26T02:47:31.025Z,85965.56
2022-09-26T02:50:38.010Z,85964.63
2022-09-26T02:53:27.339Z,85968.16
2022-09-26T02:56:23.667Z,85980.66
2022-09-26T02:59:02.219Z,85988.25
2022-09-26T03:01:53.409Z,85984.88
2022-09-26T03:04:45.241Z,85976.66
2022-09-26T03:07:16.915Z,85968.34
2022-09-26T03:09:44.215Z,85961.44
2022-09-26T03:12:13.620Z,85949.63
2022-09-26T03:14:42.968Z,85924.28
2022-09-26T03:17:10.484Z,85941.44
2022-09-26T03:19:49.882Z,85929.13
2022-09-26T03:22:17.803Z,85954.66
2022-09-26T03:24:46.184Z,85960.09
2022-09-26T03:27:16.531Z,85947.81
2022-09-26T03:29:45.406Z,85940.91
2022-09-26T03:32:18.447Z,85946.28
2022-09-26T03:34:45.496Z,85929.78
2022-09-26T03:37:12.536Z,85952.53
2022-09-26T03:39:39.473Z,85946.28
2022-09-26T03:42:14.381Z,85950.34
2022-09-26T03:44:44.110Z,85950.28
2022-09-26T03:47:15.503Z,85946.19
2022-09-26T03:49:44.651Z,85909.06
2022-09-26T03:52:13.645Z,85910.41
2022-09-26T03:54:42.468Z,85939.25
2022-09-26T03:57:12.955Z,85915.22
2022-09-26T03:59:46.186Z,85906.97
2022-09-26T04:02:14.120Z,85926.22
2022-09-26T04:04:45.113Z,85944.78
2022-09-26T04:07:12.519Z,85943.41
2022-09-26T04:09:39.547Z,85946.16
2022-09-26T04:12:08.185Z,85932.47
2022-09-26T04:14:38.619Z,85946.81
2022-09-26T04:17:05.590Z,85910.47
2022-09-26T04:19:37.259Z,85925.63
2022-09-26T04:22:05.001Z,85950.97
2022-09-26T04:24:33.450Z,85917.31
2022-09-26T04:27:01.194Z,85924.88
2022-09-26T04:29:29.810Z,85926.94
2022-09-26T04:32:17.301Z,85933.09
2022-09-26T04:35:22.611Z,85945.50
2022-09-26T04:37:50.933Z,85947.59
2022-09-26T04:40:17.989Z,85927.69
2022-09-26T04:43:08.405Z,85943.38
2022-09-26T04:45:35.522Z,85935.03
2022-09-26T04:48:03.290Z,85941.91
2022-09-26T04:51:14.143Z,85927.47
2022-09-26T04:53:41.803Z,85914.47
2022-09-26T04:56:35.322Z,85880.06
2022-09-26T04:59:02.454Z,85894.53
2022-09-26T05:01:41.877Z,85898.06
2022-09-26T05:04:14.146Z,85924.09
2022-09-26T05:06:42.346Z,85926.94
2022-09-26T05:09:20.779Z,85925.56
2022-09-26T05:12:01.717Z,85919.94
2022-09-26T05:14:29.896Z,85896.59
2022-09-26T05:16:57.359Z,85904.72
2022-09-26T05:19:24.320Z,85922.00
2022-09-26T05:22:17.370Z,85902.66
2022-09-26T05:25:02.855Z,85934.84
2022-09-26T05:27:30.756Z,85928.53
2022-09-26T05:29:57.782Z,85926.34
2022-09-26T05:32:27.236Z,85907.75
2022-09-26T05:34:55.418Z,85909.06
2022-09-26T05:37:23.982Z,85909.63
2022-09-26T05:40:09.437Z,85933.38
2022-09-26T05:42:41.038Z,85920.41
2022-09-26T05:45:08.898Z,85947.78
2022-09-26T05:47:36.641Z,85904.44
2022-09-26T05:50:16.261Z,85943.41
2022-09-26T05:52:44.499Z,85904.78
2022-09-26T05:55:17.419Z,85922.50
2022-09-26T05:58:03.747Z,85946.53
2022-09-26T06:00:50.612Z,85939.50
2022-09-26T06:03:18.349Z,85896.03
2022-09-26T06:06:00.759Z,85934.38
2022-09-26T06:08:31.504Z,85943.81
2022-09-26T06:11:28.899Z,85914.72
2022-09-26T06:13:56.009Z,85917.31
2022-09-26T06:16:23.069Z,85919.88
2022-09-26T06:18:52.747Z,85938.25
2022-09-26T06:21:20.435Z,85911.97
2022-09-26T06:23:51.495Z,85915.22
2022-09-26T06:26:22.798Z,85938.88
2022-09-26T06:29:00.971Z,85923.53
2022-09-26T06:31:33.733Z,85922.59
2022-09-26T06:34:09.654Z,85928.34
2022-09-26T06:36:58.763Z,85910.41
2022-09-26T06:39:35.867Z,85890.22
2022-09-26T06:42:06.609Z,85931.22
2022-09-26T06:45:10.461Z,85948.94
2022-09-26T06:48:01.903Z,85921.94
2022-09-26T06:50:57.240Z,85940.22
2022-09-26T06:53:25.163Z,85953.16
2022-09-26T06:55:52.143Z,85950.78
2022-09-26T06:58:19.217Z,85936.97
2022-09-26T07:00:58.738Z,85944.97
2022-09-26T07:03:45.974Z,85960.50
2022-09-26T07:06:43.363Z,85946.59
2022-09-26T07:09:12.679Z,85953.75
2022-09-26T07:12:13.043Z,85952.25
2022-09-26T07:14:34.753Z,85955.41
2022-09-26T07:17:15.690Z,85951.75
2022-09-26T07:20:03.221Z,85952.78
2022-09-26T07:22:56.428Z,85943.06
2022-09-26T07:25:23.497Z,85937.91
2022-09-26T07:27:52.424Z,85941.06
2022-09-26T07:30:23.798Z,85948.19
2022-09-26T07:33:13.478Z,85951.31
2022-09-26T07:35:48.431Z,85930.66
2022-09-26T07:38:16.017Z,85918.13
2022-09-26T07:40:43.909Z,85937.03
2022-09-26T07:43:19.979Z,85931.69
2022-09-26T07:46:11.934Z,85919.47
2022-09-26T07:49:00.520Z,85947.34
2022-09-26T07:52:06.142Z,85943.44
2022-09-26T07:54:45.946Z,85941.88
2022-09-26T07:57:25.487Z,85951.38
2022-09-26T08:00:09.627Z,85933.13
2022-09-26T08:02:51.044Z,85923.94
2022-09-26T08:05:22.057Z,85943.34
2022-09-26T08:07:50.452Z,85932.22
2022-09-26T08:10:46.757Z,85919.50
2022-09-26T08:13:34.066Z,85915.81
2022-09-26T08:16:06.227Z,85920.78
2022-09-26T08:18:38.267Z,85920.09
2022-09-26T08:21:06.583Z,85906.25
2022-09-26T08:23:34.802Z,85910.06
2022-09-26T08:26:28.568Z,85908.97
2022-09-26T08:29:15.799Z,85893.22
2022-09-26T08:31:45.989Z,85891.34
2022-09-26T08:34:13.151Z,85916.75
2022-09-26T08:36:41.687Z,85913.22
2022-09-26T08:39:16.362Z,85911.81
2022-09-26T08:42:28.725Z,85910.13
2022-09-26T08:46:04.244Z,85890.50
2022-09-26T08:48:52.140Z,85902.84
2022-09-26T08:51:40.593Z,85870.19
2022-09-26T08:54:12.993Z,85890.38
2022-09-26T08:56:45.922Z,85853.88
2022-09-26T08:59:54.986Z,85896.53
2022-09-26T09:02:33.870Z,85901.03
2022-09-26T09:05:27.196Z,85877.56
2022-09-26T09:07:57.906Z,85877.47
2022-09-26T09:10:47.382Z,85903.91
2022-09-26T09:13:36.029Z,85899.19
2022-09-26T09:16:31.900Z,85899.91
2022-09-26T09:19:36.748Z,85895.81
2022-09-26T09:22:35.225Z,85895.84
2022-09-26T09:25:35.667Z,85898.00
2022-09-26T09:28:09.492Z,85886.41
2022-09-26T09:30:41.456Z,85891.66
2022-09-26T09:33:22.717Z,85882.94
2022-09-26T09:36:17.620Z,85880.66
2022-09-26T09:39:28.573Z,85853.78
2022-09-26T09:42:34.817Z,85872.44
2022-09-26T09:45:16.037Z,85843.84
2022-09-26T09:47:44.217Z,85878.44
2022-09-26T09:50:43.237Z,85881.34
2022-09-26T09:53:42.483Z,85886.97
2022-09-26T09:56:12.646Z,85883.06
2022-09-26T09:58:59.351Z,85884.03
2022-09-26T10:01:36.058Z,85862.81
2022-09-26T10:04:12.258Z,85882.94
2022-09-26T10:06:46.503Z,85866.19
2022-09-26T10:09:35.417Z,85879.44
2022-09-26T10:12:45.040Z,85878.16
2022-09-26T10:16:01.514Z,85871.13
2022-09-26T10:19:08.813Z,85865.44
2022-09-26T10:21:40.800Z,85883.22
2022-09-26T10:24:24.301Z,85889.34
2022-09-26T10:26:58.509Z,85890.69
2022-09-26T10:29:38.430Z,85871.28
2022-09-26T10:32:06.892Z,85874.25
2022-09-26T10:34:35.973Z,85870.16
2022-09-26T10:37:23.355Z,85830.38
2022-09-26T10:40:17.431Z,85847.38
2022-09-26T10:42:48.051Z,85860.09
2022-09-26T10:45:29.444Z,85875.63
2022-09-26T10:48:22.178Z,85828.41
2022-09-26T10:51:36.181Z,85860.06
2022-09-26T10:54:09.810Z,85857.91
2022-09-26T10:56:42.932Z,85844.63
2022-09-26T10:59:12.340Z,85857.50
2022-09-26T11:01:50.602Z,85824.06
2022-09-26T11:04:41.978Z,85862.59
2022-09-26T11:07:49.479Z,85835.81
2022-09-26T11:10:41.653Z,85854.16
2022-09-26T11:13:22.326Z,85843.22
2022-09-26T11:16:02.226Z,85843.59
2022-09-26T11:18:44.772Z,85858.31
2022-09-26T11:21:43.844Z,85849.91
2022-09-26T11:24:42.699Z,85836.53
2022-09-26T11:27:35.535Z,85823.84
2022-09-26T11:30:23.092Z,85819.56
2022-09-26T11:33:05.553Z,85811.91
2022-09-26T11:36:17.003Z,85819.84
2022-09-26T11:38:55.704Z,85817.13
2022-09-26T11:41:38.758Z,85826.88
2022-09-26T11:44:55.721Z,85760.56
2022-09-26T11:47:43.694Z,85834.66
2022-09-26T11:50:35.794Z,85787.03
2022-09-26T11:53:16.045Z,85814.25
2022-09-26T11:56:09.299Z,85811.84
2022-09-26T11:58:59.363Z,85802.22
2022-09-26T12:01:43.016Z,85778.66
2022-09-26T12:04:54.220Z,85799.50
2022-09-26T12:07:33.445Z,85796.47
2022-09-26T12:10:28.175Z,85800.25
2022-09-26T12:13:34.452Z,85797.31
2022-09-26T12:16:15.221Z,85801.19
2022-09-26T12:19:16.490Z,85811.53
2022-09-26T12:22:29.939Z,85809.81
2022-09-26T12:25:11.080Z,85771.84
2022-09-26T12:28:08.545Z,85795.38
2022-09-26T12:31:18.673Z,85792.09
2022-09-26T12:34:02.486Z,85798.88
2022-09-26T12:36:40.513Z,85803.56
2022-09-26T12:39:44.901Z,85793.88
2022-09-26T12:42:35.877Z,85777.84
2022-09-26T12:45:16.791Z,85781.72
2022-09-26T12:47:50.870Z,85777.50
2022-09-26T12:50:31.021Z,85784.81
2022-09-26T12:53:10.280Z,85774.09
2022-09-26T12:55:46.448Z,85787.03
2022-09-26T12:58:32.033Z,85781.50
2022-09-26T13:01:39.637Z,85773.41
2022-09-26T13:04:28.343Z,85770.50
2022-09-26T13:07:26.363Z,85772.88
2022-09-26T13:10:19.578Z,85752.00
2022-09-26T13:13:23.273Z,85768.50
2022-09-26T13:16:14.595Z,85766.22
2022-09-26T13:18:49.461Z,85761.28
2022-09-26T13:21:19.489Z,85759.56
2022-09-26T13:24:07.802Z,85745.34
2022-09-26T13:26:45.316Z,85754.03
2022-09-26T13:29:31.649Z,85712.72
2022-09-26T13:32:35.963Z,85740.97
2022-09-26T13:35:13.524Z,85708.41
2022-09-26T13:37:59.870Z,85728.19
2022-09-26T13:40:44.275Z,85733.31
2022-09-26T13:43:25.741Z,85723.69
2022-09-26T13:46:21.365Z,85712.28
2022-09-26T13:49:01.014Z,85735.72
2022-09-26T13:51:49.386Z,85704.91
2022-09-26T13:54:20.870Z,85733.16
2022-09-26T13:56:49.974Z,85749.28
2022-09-26T13:59:19.919Z,85750.63
2022-09-26T14:02:24.723Z,85744.63
2022-09-26T14:05:17.562Z,85761.78
2022-09-26T14:08:03.521Z,85764.97
2022-09-26T14:10:41.923Z,85752.13
2022-09-26T14:13:37.194Z,85743.25
2022-09-26T14:16:25.856Z,85737.63
2022-09-26T14:18:55.998Z,85725.00
2022-09-26T14:21:37.222Z,85735.97
2022-09-26T14:24:33.289Z,85744.97
2022-09-26T14:27:10.010Z,85743.50
2022-09-26T14:29:40.043Z,85742.53
2022-09-26T14:32:10.486Z,85731.38
2022-09-26T14:34:44.327Z,85736.56
2022-09-26T14:37:26.314Z,85750.66
2022-09-26T14:40:06.638Z,85748.44
2022-09-26T14:42:42.463Z,85748.31
2022-09-26T14:45:36.817Z,85731.97
2022-09-26T14:48:29.840Z,85740.22
2022-09-26T14:51:06.445Z,85722.06
2022-09-26T14:53:48.572Z,85726.41
2022-09-26T14:56:38.161Z,85743.88
2022-09-26T14:59:20.637Z,85727.38
2022-09-26T15:01:47.901Z,85734.38
2022-09-26T15:04:25.235Z,85723.03
2022-09-26T15:06:53.492Z,85717.00
2022-09-26T15:09:25.366Z,85739.69
2022-09-26T15:11:59.593Z,85702.84
2022-09-26T15:14:35.991Z,85740.75
2022-09-26T15:17:03.076Z,85719.22
2022-09-26T15:19:36.054Z,85724.75
2022-09-26T15:22:16.103Z,85754.22
2022-09-26T15:24:43.119Z,85737.81
2022-09-26T15:27:19.257Z,85723.09
2022-09-26T15:29:50.908Z,85749.72
2022-09-26T15:32:26.560Z,85726.88
2022-09-26T15:34:55.448Z,85746.81
2022-09-26T15:37:30.120Z,85753.88
2022-09-26T15:40:10.650Z,85725.00
2022-09-26T15:42:55.980Z,85737.72
2022-09-26T15:45:28.620Z,85743.66
2022-09-26T15:47:57.961Z,85740.66
2022-09-26T15:50:29.968Z,85734.09
2022-09-26T15:53:08.934Z,85724.81
2022-09-26T15:55:50.542Z,85721.66
2022-09-26T15:58:27.429Z,85722.09
2022-09-26T16:00:54.669Z,85735.75
2022-09-26T16:03:27.472Z,85735.75
2022-09-26T16:05:55.164Z,85741.56
2022-09-26T16:08:33.693Z,85719.13
2022-09-26T16:11:02.013Z,85721.97
2022-09-26T16:13:40.248Z,85719.97
2022-09-26T16:16:16.366Z,85728.00
2022-09-26T16:18:53.715Z,85679.34
2022-09-26T16:21:29.450Z,85703.38
2022-09-26T16:23:59.424Z,85705.81
2022-09-26T16:26:31.469Z,85715.34
2022-09-26T16:29:00.406Z,85726.09
2022-09-26T16:31:31.709Z,85716.31
2022-09-26T16:33:59.253Z,85724.44
2022-09-26T16:36:33.441Z,85728.09
2022-09-26T16:39:08.878Z,85727.50
2022-09-26T16:42:02.439Z,85722.84
2022-09-26T16:44:39.758Z,85726.81
2022-09-26T16:47:27.143Z,85721.66
2022-09-26T16:49:54.144Z,85726.50
2022-09-26T16:52:28.819Z,85729.97
2022-09-26T16:55:01.361Z,85729.31
2022-09-26T16:57:35.408Z,85731.72
2022-09-26T17:00:34.936Z,85666.41
2022-09-26T17:03:02.368Z,85738.75
2022-09-26T17:05:29.517Z,85704.94
2022-09-26T17:07:56.524Z,85716.56
2022-09-26T17:10:25.841Z,85709.97
2022-09-26T17:12:53.639Z,85724.75
2022-09-26T17:15:30.135Z,85727.22
2022-09-26T17:17:58.411Z,85690.69
2022-09-26T17:20:25.953Z,85692.50
2022-09-26T17:22:53.673Z,85682.81
2022-09-26T17:25:25.001Z,85713.13
2022-09-26T17:27:55.204Z,85712.88
2022-09-26T17:30:22.330Z,85720.59
2022-09-26T17:32:52.475Z,85722.72
2022-09-26T17:35:25.089Z,85709.22
2022-09-26T17:37:54.655Z,85721.53
2022-09-26T17:40:24.927Z,85696.22
2022-09-26T17:42:55.391Z,85681.69
2022-09-26T17:45:32.109Z,85713.28
2022-09-26T17:48:02.483Z,85678.53
2022-09-26T17:50:31.663Z,85691.59
2022-09-26T17:53:01.190Z,85686.19
2022-09-26T17:55:29.755Z,85706.47
2022-09-26T17:57:57.857Z,85705.03
2022-09-26T18:00:25.833Z,85690.78
2022-09-26T18:03:00.653Z,85708.19
2022-09-26T18:05:34.179Z,85696.97
2022-09-26T18:08:08.173Z,85684.97
2022-09-26T18:10:35.704Z,85653.41
2022-09-26T18:13:14.940Z,85639.81
2022-09-26T18:15:42.494Z,85680.00
2022-09-26T18:18:17.289Z,85681.53
2022-09-26T18:20:49.062Z,85666.56
2022-09-26T18:23:22.218Z,85679.47
2022-09-26T18:25:52.079Z,85660.94
2022-09-26T18:28:22.643Z,85658.63
2022-09-26T18:30:57.865Z,85637.94
2022-09-26T18:33:29.154Z,85655.94
2022-09-26T18:35:58.376Z,85672.25
2022-09-26T18:38:25.982Z,85655.94
2022-09-26T18:41:03.585Z,85663.06
2022-09-26T18:43:32.140Z,85645.41
2022-09-26T18:45:59.614Z,85663.47
2022-09-26T18:48:31.978Z,85641.13
2022-09-26T18:51:00.691Z,85634.41
2022-09-26T18:53:30.681Z,85649.72
2022-09-26T18:56:16.708Z,85639.28
2022-09-26T18:58:48.716Z,85637.94
2022-09-26T19:01:19.774Z,85643.53
2022-09-26T19:03:48.843Z,85636.75
2022-09-26T19:06:25.057Z,85626.16
2022-09-26T19:08:58.225Z,85633.34
2022-09-26T19:11:27.283Z,85629.78
2022-09-26T19:13:57.403Z,85606.88
2022-09-26T19:16:25.244Z,85627.97
2022-09-26T19:18:52.583Z,85621.94
2022-09-26T19:21:31.083Z,85614.50
2022-09-26T19:24:12.698Z,85613.97
2022-09-26T19:26:43.158Z,85610.66
2022-09-26T19:29:15.332Z,85594.97
2022-09-26T19:31:43.767Z,85600.75
2022-09-26T19:34:14.923Z,85599.13
2022-09-26T19:36:42.138Z,85583.25
2022-09-26T19:39:15.884Z,85596.59
2022-09-26T19:41:42.826Z,85598.03
2022-09-26T19:44:09.865Z,85594.09
2022-09-26T19:46:38.749Z,85571.97
2022-09-26T19:49:07.058Z,85595.59
2022-09-26T19:51:38.289Z,85580.66
2022-09-26T19:54:06.595Z,85592.31
2022-09-26T19:56:35.006Z,85606.78
2022-09-26T19:59:02.257Z,85598.63
2022-09-26T20:01:29.750Z,85603.69
2022-09-26T20:03:56.861Z,85601.28
2022-09-26T20:06:25.793Z,85567.50
2022-09-26T20:09:00.500Z,85582.53
2022-09-26T20:11:28.416Z,85587.47
2022-09-26T20:14:14.322Z,85581.34
2022-09-26T20:16:42.697Z,85598.78
2022-09-26T20:19:16.432Z,85593.19
2022-09-26T20:21:44.385Z,85595.91
2022-09-26T20:24:16.801Z,85579.47
2022-09-26T20:26:43.858Z,85549.22
2022-09-26T20:29:15.683Z,85567.03
2022-09-26T20:31:43.783Z,85570.28
2022-09-26T20:34:11.691Z,85558.47
2022-09-26T20:36:42.369Z,85534.91
2022-09-26T20:39:16.712Z,85558.16
2022-09-26T20:41:44.661Z,85538.25
2022-09-26T20:44:17.940Z,85530.31
2022-09-26T20:46:54.360Z,85551.22
2022-09-26T20:49:26.088Z,85526.59
2022-09-26T20:51:53.726Z,85555.25
2022-09-26T20:54:31.243Z,85555.34
2022-09-26T20:56:59.346Z,85549.09
2022-09-26T20:59:26.975Z,85566.72
2022-09-26T21:01:54.743Z,85556.81
2022-09-26T21:04:28.973Z,85525.22
2022-09-26T21:06:55.965Z,85533.66
2022-09-26T21:09:22.862Z,85532.97
2022-09-26T21:11:50.114Z,85534.59
2022-09-26T21:14:18.328Z,85541.84
2022-09-26T21:16:48.589Z,85534.34
2022-09-26T21:19:21.949Z,85533.66
2022-09-26T21:21:53.018Z,85518.97
2022-09-26T21:24:35.220Z,85493.66
2022-09-26T21:27:02.164Z,85491.22
2022-09-26T21:29:29.154Z,85490.63
2022-09-26T21:32:02.945Z,85513.50
2022-09-26T21:34:32.922Z,85485.03
2022-09-26T21:37:03.853Z,85507.59
2022-09-26T21:39:31.507Z,85507.44
2022-09-26T21:42:03.121Z,85490.56
2022-09-26T21:44:30.008Z,85515.63
2022-09-26T21:46:56.934Z,85505.94
2022-09-26T21:49:24.866Z,85471.69
2022-09-26T21:52:01.357Z,85486.34
2022-09-26T21:54:33.739Z,85501.88
2022-09-26T21:57:09.953Z,85475.03
2022-09-26T21:59:39.359Z,85459.31
2022-09-26T22:02:06.420Z,85476.69
2022-09-26T22:04:33.393Z,85465.81
2022-09-26T22:07:00.289Z,85450.75
2022-09-26T22:09:27.218Z,85443.31
2022-09-26T22:11:54.144Z,85455.47
2022-09-26T22:14:21.129Z,85428.56
2022-09-26T22:16:48.071Z,85466.56
2022-09-26T22:19:15.158Z,85450.94
2022-09-26T22:21:43.230Z,85421.31
2022-09-26T22:24:10.536Z,85416.41
2022-09-26T22:26:37.521Z,85450.13
2022-09-26T22:29:05.387Z,85422.28
2022-09-26T22:31:32.311Z,85440.69
2022-09-26T22:34:00.126Z,85385.72
2022-09-26T22:36:27.745Z,85440.00
2022-09-26T22:38:55.045Z,85408.94
2022-09-26T22:41:22.038Z,85427.94
2022-09-26T22:43:49.474Z,85446.56
2022-09-26T22:46:16.851Z,85399.06
2022-09-26T22:48:46.338Z,85442.13
2022-09-26T22:51:14.611Z,85447.34
2022-09-26T22:53:43.103Z,85417.84
2022-09-26T22:56:13.090Z,85439.56
2022-09-26T22:58:44.495Z,85414.53
2022-09-26T23:01:15.380Z,85423.72
2022-09-26T23:03:42.603Z,85385.31
2022-09-26T23:06:11.250Z,85388.44
2022-09-26T23:08:38.549Z,85422.53
2022-09-26T23:11:07.212Z,85409.94
2022-09-26T23:13:35.736Z,85412.50
2022-09-26T23:16:23.998Z,85422.91
2022-09-26T23:18:51.396Z,85422.28
2022-09-26T23:21:21.003Z,85439.09
2022-09-26T23:23:50.697Z,85426.59
2022-09-26T23:26:29.502Z,85413.47
2022-09-26T23:28:58.018Z,85416.84
2022-09-26T23:31:26.318Z,85421.16
2022-09-26T23:33:54.133Z,85402.00
2022-09-26T23:36:21.390Z,85410.75
2022-09-26T23:38:48.431Z,85405.59
2022-09-26T23:41:15.833Z,85394.69
2022-09-26T23:43:42.788Z,85374.31
2022-09-26T23:46:10.829Z,85384.94
2022-09-26T23:48:38.096Z,85348.44
2022-09-26T23:51:05.256Z,85380.56
2022-09-26T23:53:32.975Z,85387.66
2022-09-26T23:56:08.974Z,85387.81
2022-09-26T23:58:37.377Z,85381.09
